Time;durP1;ratioP1;P1;durP2;ratioP2;P2;SDS_P1;SDS_P2;PMS_P1;PMS_P2;Temp;Humidity;BMP_temperature;BMP_pressure;BME280_temperature;BME280_humidity;BME280_pressure;Samples;Min_cycle;Max_cycle;Signal;HPM_P1;HPM_P2
2022/10/21 00:00:20;;;;;;;11.88;8.80;;;;;;;;;;5009134;28;20042;-78
2022/10/21 00:02:47;;;;;;;10.48;8.07;;;;;;;;;;5009669;28;20049;-78
2022/10/21 00:05:14;;;;;;;12.65;8.55;;;;;;;;;;5007175;28;20508;-79
2022/10/21 00:07:41;;;;;;;13.80;9.80;;;;;;;;;;5020454;28;20049;-78
2022/10/21 00:10:09;;;;;;;14.18;9.10;;;;;;;;;;5012210;28;20056;-77
2022/10/21 00:12:37;;;;;;;9.88;8.40;;;;;;;;;;5022486;28;20049;-77
2022/10/21 00:15:05;;;;;;;11.45;8.40;;;;;;;;;;5007861;28;20417;-78
2022/10/21 00:17:36;;;;;;;8.73;7.82;;;;;;;;;;5007483;28;20038;-78
2022/10/21 00:20:05;;;;;;;12.20;7.93;;;;;;;;;;5011140;28;20046;-77
2022/10/21 00:22:32;;;;;;;7.80;6.65;;;;;;;;;;5008462;28;20311;-77
2022/10/21 00:25:00;;;;;;;7.25;6.55;;;;;;;;;;5009085;28;20077;-77
2022/10/21 00:27:27;;;;;;;9.32;7.40;;;;;;;;;;5004946;28;20056;-77
2022/10/21 00:29:54;;;;;;;8.43;7.53;;;;;;;;;;5001874;28;20045;-79
2022/10/21 00:32:21;;;;;;;14.55;7.38;;;;;;;;;;5012010;28;20381;-76
2022/10/21 00:34:49;;;;;;;9.77;7.03;;;;;;;;;;5006811;28;20062;-77
2022/10/21 00:37:16;;;;;;;10.48;7.07;;;;;;;;;;5007930;28;20129;-75
2022/10/21 00:39:44;;;;;;;7.60;6.65;;;;;;;;;;5007332;28;20044;-78
2022/10/21 00:42:16;;;;;;;7.68;6.40;;;;;;;;;;4989174;28;20497;-79
2022/10/21 00:45:00;;;;;;;7.90;7.13;;;;;;;;;;5008375;28;20516;-77
2022/10/21 00:47:28;;;;;;;9.80;6.43;;;;;;;;;;4985195;28;20072;-77
2022/10/21 00:50:00;;;;;;;10.88;7.15;;;;;;;;;;5005730;28;20588;-77
2022/10/21 00:52:29;;;;;;;11.07;7.55;;;;;;;;;;5007592;28;20038;-78
2022/10/21 00:54:57;;;;;;;9.13;7.50;;;;;;;;;;5004341;28;20056;-78
2022/10/21 00:57:25;;;;;;;13.13;7.82;;;;;;;;;;5001793;28;20069;-77
2022/10/21 00:59:54;;;;;;;20.88;9.32;;;;;;;;;;5009655;28;20104;-77
2022/10/21 01:02:22;;;;;;;16.30;8.77;;;;;;;;;;4990603;28;20052;-77
2022/10/21 01:04:53;;;;;;;13.30;8.55;;;;;;;;;;4990327;28;20073;-77
2022/10/21 01:07:20;;;;;;;15.77;8.33;;;;;;;;;;5003468;28;20041;-77
2022/10/21 01:09:48;;;;;;;10.48;7.88;;;;;;;;;;4989754;28;20308;-77
2022/10/21 01:12:29;;;;;;;9.00;7.95;;;;;;;;;;5005386;28;20029;-77
2022/10/21 01:15:00;;;;;;;9.98;7.38;;;;;;;;;;5006313;28;20464;-78
2022/10/21 01:17:33;;;;;;;7.60;6.80;;;;;;;;;;5018368;28;20453;-78
2022/10/21 01:20:14;;;;;;;8.77;6.85;;;;;;;;;;4990714;28;20054;-78
2022/10/21 01:22:51;;;;;;;8.48;6.63;;;;;;;;;;5003512;28;20045;-78
2022/10/21 01:25:37;;;;;;;7.57;6.53;;;;;;;;;;5003795;28;20046;-78
2022/10/21 01:28:04;;;;;;;9.85;7.25;;;;;;;;;;5001484;28;20472;-78
2022/10/21 01:30:36;;;;;;;12.18;6.97;;;;;;;;;;5004307;28;20428;-78
2022/10/21 01:33:20;;;;;;;9.88;8.35;;;;;;;;;;5003966;28;20088;-77
2022/10/21 01:35:47;;;;;;;8.27;7.32;;;;;;;;;;5018415;28;20050;-78
2022/10/21 01:38:14;;;;;;;7.93;7.22;;;;;;;;;;5004732;28;20129;-78
2022/10/21 01:40:45;;;;;;;9.70;7.97;;;;;;;;;;5005353;28;20042;-78
2022/10/21 01:43:21;;;;;;;7.97;6.60;;;;;;;;;;5004171;28;20066;-78
2022/10/21 01:45:51;;;;;;;8.05;7.35;;;;;;;;;;5004064;28;20069;-78
2022/10/21 01:48:23;;;;;;;10.32;8.00;;;;;;;;;;5003886;28;20038;-78
2022/10/21 01:50:52;;;;;;;8.45;7.75;;;;;;;;;;5019159;28;20056;-78
2022/10/21 01:53:21;;;;;;;8.18;7.30;;;;;;;;;;5005868;28;20072;-78
2022/10/21 01:55:48;;;;;;;9.88;8.07;;;;;;;;;;5005290;28;20117;-78
2022/10/21 01:58:19;;;;;;;9.45;6.88;;;;;;;;;;5006789;28;20527;-78
2022/10/21 02:00:47;;;;;;;7.65;6.85;;;;;;;;;;5003346;28;20053;-81
2022/10/21 02:03:16;;;;;;;9.27;7.20;;;;;;;;;;5003203;28;20072;-78
2022/10/21 02:05:44;;;;;;;7.57;6.82;;;;;;;;;;5003912;28;20092;-78
2022/10/21 02:08:11;;;;;;;7.55;6.85;;;;;;;;;;5006095;28;20062;-78
2022/10/21 02:10:41;;;;;;;7.97;6.82;;;;;;;;;;5003392;28;20116;-78
2022/10/21 02:13:10;;;;;;;6.90;6.20;;;;;;;;;;5002895;28;20129;-78
2022/10/21 02:15:40;;;;;;;7.65;6.95;;;;;;;;;;5004206;28;20125;-77
2022/10/21 02:18:18;;;;;;;10.15;7.30;;;;;;;;;;5003231;28;20504;-78
2022/10/21 02:20:45;;;;;;;8.30;7.32;;;;;;;;;;5004957;28;20073;-78
2022/10/21 02:23:14;;;;;;;10.30;7.25;;;;;;;;;;5004489;28;20129;-78
2022/10/21 02:25:43;;;;;;;8.35;7.53;;;;;;;;;;5003598;28;20065;-78
2022/10/21 02:28:12;;;;;;;11.63;7.30;;;;;;;;;;5006542;28;20121;-78
2022/10/21 02:31:03;;;;;;;6.57;5.22;;;;;;;;;;5005325;28;20042;-78
2022/10/21 02:33:37;;;;;;;9.73;7.40;;;;;;;;;;5003033;28;20078;-78
2022/10/21 02:36:14;;;;;;;10.38;7.75;;;;;;;;;;5026650;28;20599;-78
2022/10/21 02:38:44;;;;;;;8.85;7.85;;;;;;;;;;5008502;28;20034;-78
2022/10/21 02:41:13;;;;;;;7.95;7.15;;;;;;;;;;5005687;28;20080;-78
2022/10/21 02:43:40;;;;;;;12.57;7.68;;;;;;;;;;5008899;28;20056;-78
2022/10/21 02:46:11;;;;;;;8.48;7.72;;;;;;;;;;5006964;28;20034;-77
2022/10/21 02:48:39;;;;;;;10.27;7.85;;;;;;;;;;5007581;28;20042;-78
2022/10/21 02:51:07;;;;;;;9.35;7.80;;;;;;;;;;5008189;28;20568;-78
2022/10/21 02:53:34;;;;;;;8.18;7.05;;;;;;;;;;5005753;28;20452;-78
2022/10/21 02:56:02;;;;;;;8.52;7.72;;;;;;;;;;5006070;28;20428;-78
2022/10/21 02:58:29;;;;;;;9.30;7.57;;;;;;;;;;5006683;28;20041;-78
2022/10/21 03:00:56;;;;;;;8.63;7.50;;;;;;;;;;5003261;28;20081;-78
2022/10/21 03:03:24;;;;;;;9.15;8.02;;;;;;;;;;4983364;28;20038;-78
2022/10/21 03:05:51;;;;;;;13.00;7.32;;;;;;;;;;5003669;28;20046;-78
2022/10/21 03:08:18;;;;;;;8.35;7.50;;;;;;;;;;5008451;28;20042;-78
2022/10/21 03:10:48;;;;;;;12.02;8.40;;;;;;;;;;5023712;28;20046;-78
2022/10/21 03:13:20;;;;;;;11.43;7.30;;;;;;;;;;5002821;28;20385;-78
2022/10/21 03:15:48;;;;;;;9.15;8.10;;;;;;;;;;5004330;28;20141;-78
2022/10/21 03:18:15;;;;;;;10.60;8.23;;;;;;;;;;5005791;28;20034;-78
2022/10/21 03:20:42;;;;;;;9.25;8.02;;;;;;;;;;5005179;28;20046;-78
2022/10/21 03:23:10;;;;;;;7.32;6.68;;;;;;;;;;5008319;28;20505;-78
2022/10/21 03:25:37;;;;;;;9.80;7.43;;;;;;;;;;5005068;28;20140;-78
2022/10/21 03:28:04;;;;;;;9.88;8.45;;;;;;;;;;5006050;28;20042;-78
2022/10/21 03:30:32;;;;;;;8.05;7.28;;;;;;;;;;5005845;28;20060;-78
2022/10/21 03:32:59;;;;;;;10.38;8.70;;;;;;;;;;5005813;28;20049;-77
2022/10/21 03:35:26;;;;;;;10.15;8.48;;;;;;;;;;5004916;28;20120;-78
2022/10/21 03:37:54;;;;;;;12.63;8.63;;;;;;;;;;5003385;28;20125;-78
2022/10/21 03:40:22;;;;;;;12.13;8.23;;;;;;;;;;5007270;28;20078;-78
2022/10/21 03:42:50;;;;;;;10.50;9.40;;;;;;;;;;5007093;28;20052;-78
2022/10/21 03:45:17;;;;;;;13.32;9.57;;;;;;;;;;5006160;28;20572;-78
2022/10/21 03:47:46;;;;;;;9.25;8.43;;;;;;;;;;5010072;23;20604;-85
2022/10/21 03:50:13;;;;;;;21.60;9.13;;;;;;;;;;5025533;28;20041;-84
2022/10/21 03:52:47;;;;;;;11.10;9.07;;;;;;;;;;5024198;28;20096;-84
2022/10/21 03:55:16;;;;;;;11.38;8.85;;;;;;;;;;4994509;28;20077;-85
2022/10/21 03:57:43;;;;;;;10.65;9.55;;;;;;;;;;5000964;28;20045;-85
2022/10/21 04:00:10;;;;;;;10.30;9.18;;;;;;;;;;5007644;28;20052;-85
2022/10/21 04:02:39;;;;;;;10.23;8.77;;;;;;;;;;5016001;28;20799;-85
2022/10/21 04:05:07;;;;;;;10.23;9.15;;;;;;;;;;5009373;28;20049;-85
2022/10/21 04:07:34;;;;;;;10.80;9.38;;;;;;;;;;5002695;28;20034;-85
2022/10/21 04:10:02;;;;;;;10.05;9.05;;;;;;;;;;4997217;28;20093;-85
2022/10/21 04:12:29;;;;;;;10.73;9.23;;;;;;;;;;5005700;28;20034;-86
2022/10/21 04:14:56;;;;;;;10.27;8.93;;;;;;;;;;5005391;28;20045;-85
2022/10/21 04:17:24;;;;;;;11.15;9.68;;;;;;;;;;5005433;28;20049;-85
2022/10/21 04:19:51;;;;;;;13.05;9.70;;;;;;;;;;5007204;28;20038;-85
2022/10/21 04:22:18;;;;;;;11.02;8.30;;;;;;;;;;5000849;28;20108;-85
2022/10/21 04:24:45;;;;;;;10.27;9.35;;;;;;;;;;5006135;28;20056;-84
2022/10/21 04:27:12;;;;;;;13.02;9.45;;;;;;;;;;5003068;28;20115;-83
2022/10/21 04:29:40;;;;;;;10.52;9.35;;;;;;;;;;5006096;28;20060;-85
2022/10/21 04:32:07;;;;;;;12.38;9.38;;;;;;;;;;5007831;28;20042;-84
2022/10/21 04:34:34;;;;;;;9.57;8.68;;;;;;;;;;4973513;28;20073;-84
2022/10/21 04:37:01;;;;;;;11.32;8.50;;;;;;;;;;5005313;28;20103;-85
2022/10/21 04:39:31;;;;;;;10.48;8.00;;;;;;;;;;5002857;28;20050;-85
2022/10/21 04:41:59;;;;;;;10.77;9.68;;;;;;;;;;5001205;28;20061;-85
2022/10/21 04:44:26;;;;;;;10.38;8.48;;;;;;;;;;5005042;28;20509;-85
2022/10/21 04:46:53;;;;;;;9.15;7.78;;;;;;;;;;4998747;28;20215;-85
2022/10/21 04:49:20;;;;;;;10.23;8.48;;;;;;;;;;5007395;28;20037;-84
2022/10/21 04:51:48;;;;;;;12.13;8.68;;;;;;;;;;5000311;28;20121;-84
2022/10/21 04:54:15;;;;;;;17.52;7.45;;;;;;;;;;5003552;28;20100;-84
2022/10/21 04:56:42;;;;;;;12.27;8.23;;;;;;;;;;5018233;28;20541;-84
2022/10/21 04:59:10;;;;;;;13.52;8.23;;;;;;;;;;4995818;28;20066;-85
2022/10/21 05:01:37;;;;;;;11.70;8.30;;;;;;;;;;4999837;28;20042;-84
2022/10/21 05:04:04;;;;;;;11.82;8.00;;;;;;;;;;4997609;28;20100;-84
2022/10/21 05:06:32;;;;;;;12.68;7.60;;;;;;;;;;4996630;28;20046;-84
2022/10/21 05:08:59;;;;;;;8.98;8.07;;;;;;;;;;5021441;28;20050;-84
2022/10/21 05:11:27;;;;;;;9.07;8.20;;;;;;;;;;5004290;28;20073;-84
2022/10/21 05:13:54;;;;;;;9.30;8.38;;;;;;;;;;4986745;28;20046;-84
2022/10/21 05:16:22;;;;;;;11.65;8.30;;;;;;;;;;5010245;28;20089;-85
2022/10/21 05:18:50;;;;;;;9.88;8.50;;;;;;;;;;5003429;28;20052;-85
2022/10/21 05:21:17;;;;;;;10.73;8.02;;;;;;;;;;5005341;28;20075;-84
2022/10/21 05:23:44;;;;;;;9.52;7.85;;;;;;;;;;5007456;28;20072;-85
2022/10/21 05:26:11;;;;;;;11.57;9.23;;;;;;;;;;5002076;28;20066;-85
2022/10/21 05:28:39;;;;;;;9.10;8.20;;;;;;;;;;5019885;28;20069;-85
2022/10/21 05:31:06;;;;;;;8.23;7.43;;;;;;;;;;4998259;28;20045;-85
2022/10/21 05:33:33;;;;;;;10.30;8.20;;;;;;;;;;5002023;28;20464;-85
2022/10/21 05:36:05;;;;;;;10.90;7.88;;;;;;;;;;5005254;28;20049;-85
2022/10/21 05:38:33;;;;;;;10.98;8.18;;;;;;;;;;5001720;28;20639;-85
2022/10/21 05:41:01;;;;;;;11.52;9.05;;;;;;;;;;5006264;28;20136;-85
2022/10/21 05:43:28;;;;;;;9.40;8.48;;;;;;;;;;4996450;28;20463;-85
2022/10/21 05:45:58;;;;;;;9.27;6.85;;;;;;;;;;5001918;28;20047;-85
2022/10/21 05:48:26;;;;;;;10.32;7.20;;;;;;;;;;4997573;28;20128;-85
2022/10/21 05:50:53;;;;;;;8.85;7.10;;;;;;;;;;4999653;28;20046;-85
2022/10/21 05:53:22;;;;;;;9.02;8.18;;;;;;;;;;4999218;28;20042;-85
2022/10/21 05:56:00;;;;;;;13.73;8.88;;;;;;;;;;5007426;28;20137;-85
2022/10/21 05:58:27;;;;;;;10.82;9.18;;;;;;;;;;4998047;28;20540;-83
2022/10/21 06:00:55;;;;;;;12.13;9.27;;;;;;;;;;4984559;28;20141;-83
2022/10/21 06:03:23;;;;;;;9.75;8.75;;;;;;;;;;5020245;28;20066;-83
2022/10/21 06:05:50;;;;;;;11.90;8.75;;;;;;;;;;4975305;28;20125;-83
2022/10/21 06:08:18;;;;;;;11.60;8.52;;;;;;;;;;5006856;28;20124;-83
2022/10/21 06:10:45;;;;;;;16.27;8.02;;;;;;;;;;5000881;28;20042;-83
2022/10/21 06:13:12;;;;;;;9.90;7.97;;;;;;;;;;5011714;28;20038;-83
2022/10/21 06:15:39;;;;;;;9.00;7.72;;;;;;;;;;5008338;28;20060;-83
2022/10/21 06:18:07;;;;;;;7.85;7.13;;;;;;;;;;5008390;28;20127;-83
2022/10/21 06:20:34;;;;;;;10.63;8.07;;;;;;;;;;4996438;28;20084;-82
2022/10/21 06:23:01;;;;;;;9.27;8.35;;;;;;;;;;4996616;28;20053;-83
2022/10/21 06:25:28;;;;;;;9.43;7.53;;;;;;;;;;5005134;28;20416;-83
2022/10/21 06:27:56;;;;;;;13.80;8.00;;;;;;;;;;4992778;28;20616;-83
2022/10/21 06:30:23;;;;;;;8.98;8.05;;;;;;;;;;5000549;28;20034;-83
2022/10/21 06:32:50;;;;;;;8.57;7.70;;;;;;;;;;5025407;28;20052;-83
2022/10/21 06:35:17;;;;;;;8.30;7.25;;;;;;;;;;5005008;28;20526;-82
2022/10/21 06:37:45;;;;;;;9.77;7.50;;;;;;;;;;4991628;28;20480;-83
2022/10/21 06:40:12;;;;;;;8.93;7.53;;;;;;;;;;5003180;28;20085;-82
2022/10/21 06:42:39;;;;;;;10.48;8.15;;;;;;;;;;5001149;28;20065;-82
2022/10/21 06:45:07;;;;;;;8.65;7.75;;;;;;;;;;5005957;28;20099;-83
2022/10/21 06:47:34;;;;;;;10.10;7.85;;;;;;;;;;4993518;28;20046;-83
2022/10/21 06:50:02;;;;;;;10.93;8.02;;;;;;;;;;5024086;28;20492;-83
2022/10/21 06:52:30;;;;;;;9.70;8.43;;;;;;;;;;4988245;28;20050;-83
2022/10/21 06:54:57;;;;;;;11.82;8.60;;;;;;;;;;5009153;28;20034;-84
2022/10/21 06:57:26;;;;;;;12.15;9.07;;;;;;;;;;5004715;28;20053;-83
2022/10/21 06:59:54;;;;;;;14.20;8.32;;;;;;;;;;5029364;28;20046;-83
2022/10/21 07:02:23;;;;;;;15.80;8.77;;;;;;;;;;5006441;28;20046;-83
2022/10/21 07:04:51;;;;;;;9.35;8.05;;;;;;;;;;5013779;28;20155;-84
2022/10/21 07:07:19;;;;;;;10.00;7.85;;;;;;;;;;5005503;28;20037;-84
2022/10/21 07:09:46;;;;;;;9.02;7.15;;;;;;;;;;5029010;28;20078;-84
2022/10/21 07:12:13;;;;;;;9.57;7.70;;;;;;;;;;5004303;28;20052;-83
2022/10/21 07:14:41;;;;;;;7.80;6.70;;;;;;;;;;5006144;28;20477;-83
2022/10/21 07:17:08;;;;;;;9.23;7.75;;;;;;;;;;5016783;28;20022;-84
2022/10/21 07:19:36;;;;;;;12.30;8.13;;;;;;;;;;5034350;28;20136;-84
2022/10/21 07:22:03;;;;;;;8.93;7.93;;;;;;;;;;5005827;28;20123;-84
2022/10/21 07:24:30;;;;;;;13.77;9.23;;;;;;;;;;5006731;28;20135;-84
2022/10/21 07:26:57;;;;;;;10.52;8.27;;;;;;;;;;5004229;28;20138;-84
2022/10/21 07:29:25;;;;;;;11.75;9.20;;;;;;;;;;5005385;28;20042;-84
2022/10/21 07:31:52;;;;;;;9.63;8.23;;;;;;;;;;5008030;28;20041;-84
2022/10/21 07:34:19;;;;;;;11.23;8.65;;;;;;;;;;5038082;28;20503;-84
2022/10/21 07:36:48;;;;;;;9.95;8.85;;;;;;;;;;5016582;28;20053;-85
2022/10/21 07:39:16;;;;;;;13.77;8.35;;;;;;;;;;5006402;28;20054;-83
2022/10/21 07:41:45;;;;;;;11.00;9.00;;;;;;;;;;5016663;28;20056;-84
2022/10/21 07:44:13;;;;;;;15.68;8.50;;;;;;;;;;5006269;28;20111;-84
2022/10/21 07:46:41;;;;;;;8.43;7.15;;;;;;;;;;5005073;28;20056;-84
2022/10/21 07:49:09;;;;;;;10.32;7.45;;;;;;;;;;5007391;28;20092;-84
2022/10/21 07:51:36;;;;;;;11.15;7.70;;;;;;;;;;5007095;28;20066;-84
2022/10/21 07:54:03;;;;;;;8.10;7.07;;;;;;;;;;5005279;28;20041;-84
2022/10/21 07:56:32;;;;;;;8.10;7.30;;;;;;;;;;5002994;28;21087;-84
2022/10/21 07:59:00;;;;;;;8.45;7.63;;;;;;;;;;5001122;28;20045;-85
2022/10/21 08:01:28;;;;;;;9.27;7.07;;;;;;;;;;5004120;28;20038;-85
2022/10/21 08:03:56;;;;;;;8.82;7.03;;;;;;;;;;5021789;28;20402;-85
2022/10/21 08:06:24;;;;;;;15.98;11.65;;;;;;;;;;5006435;28;20037;-85
2022/10/21 08:08:52;;;;;;;10.93;8.35;;;;;;;;;;5002408;28;20074;-85
2022/10/21 08:11:20;;;;;;;11.13;8.07;;;;;;;;;;5011412;28;20045;-85
2022/10/21 08:13:48;;;;;;;10.27;8.02;;;;;;;;;;5014865;28;20378;-83
2022/10/21 08:16:16;;;;;;;9.88;8.10;;;;;;;;;;5006115;28;20101;-85
2022/10/21 08:18:43;;;;;;;10.15;7.50;;;;;;;;;;5021592;28;20053;-85
2022/10/21 08:21:11;;;;;;;8.55;7.40;;;;;;;;;;5004216;28;20038;-85
2022/10/21 08:23:38;;;;;;;12.85;7.20;;;;;;;;;;5005718;28;20053;-84
2022/10/21 08:26:07;;;;;;;8.38;7.57;;;;;;;;;;5004790;28;20133;-84
2022/10/21 08:28:34;;;;;;;8.88;7.05;;;;;;;;;;5013982;28;20058;-84
2022/10/21 08:31:06;;;;;;;7.93;7.13;;;;;;;;;;5010880;28;20070;-85
2022/10/21 08:33:33;;;;;;;;;;;;;;;;;;4999470;28;20445;-85
2022/10/21 08:36:05;;;;;;;8.45;6.75;;;;;;;;;;5001612;28;19926;-85
2022/10/21 08:38:32;;;;;;;7.80;7.03;;;;;;;;;;5006590;28;20145;-84
2022/10/21 08:41:00;;;;;;;7.53;6.82;;;;;;;;;;5011336;28;20310;-84
2022/10/21 08:43:31;;;;;;;7.53;6.80;;;;;;;;;;5003374;28;20145;-84
2022/10/21 08:46:07;;;;;;;8.88;8.07;;;;;;;;;;5005216;28;20052;-84
2022/10/21 08:48:49;;;;;;;11.93;6.63;;;;;;;;;;5006193;28;20086;-84
2022/10/21 08:51:22;;;;;;;7.78;6.53;;;;;;;;;;5002264;28;20091;-84
2022/10/21 08:53:50;;;;;;;10.50;6.88;;;;;;;;;;5031952;28;20062;-84
2022/10/21 08:56:17;;;;;;;9.07;6.72;;;;;;;;;;4988159;28;20042;-83
2022/10/21 08:58:47;;;;;;;9.90;6.93;;;;;;;;;;5007140;28;20053;-84
2022/10/21 09:01:25;;;;;;;9.48;7.15;;;;;;;;;;5008342;28;20540;-84
2022/10/21 09:04:11;;;;;;;7.53;6.63;;;;;;;;;;5024318;28;20050;-86
2022/10/21 09:06:45;;;;;;;9.10;6.95;;;;;;;;;;5004681;28;20049;-87
2022/10/21 09:09:17;;;;;;;8.50;6.43;;;;;;;;;;5005580;28;20099;-87
2022/10/21 09:12:02;;;;;;;7.15;6.45;;;;;;;;;;4998585;28;20042;-86
2022/10/21 09:14:53;;;;;;;9.07;6.47;;;;;;;;;;4999385;28;20125;-88
2022/10/21 09:17:35;;;;;;;9.52;6.70;;;;;;;;;;5005379;28;20034;-86
2022/10/21 09:20:15;;;;;;;8.50;7.70;;;;;;;;;;5002287;28;20042;-87
2022/10/21 09:22:55;;;;;;;10.02;6.88;;;;;;;;;;5018253;28;20687;-88
2022/10/21 09:25:32;;;;;;;9.45;6.95;;;;;;;;;;5021282;28;20513;-86
2022/10/21 09:28:00;;;;;;;10.13;7.72;;;;;;;;;;4989739;28;20050;-86
2022/10/21 09:30:29;;;;;;;7.93;6.35;;;;;;;;;;5003555;28;20120;-88
2022/10/21 09:32:57;;;;;;;7.35;6.63;;;;;;;;;;5007538;28;20089;-87
2022/10/21 09:35:39;;;;;;;12.07;6.60;;;;;;;;;;4990277;28;20728;-86
2022/10/21 09:38:12;;;;;;;7.35;6.55;;;;;;;;;;5006911;28;20068;-86
2022/10/21 09:40:39;;;;;;;7.45;6.75;;;;;;;;;;5017841;28;20073;-86
2022/10/21 09:43:14;;;;;;;7.70;5.90;;;;;;;;;;5013778;28;20125;-86
2022/10/21 09:45:44;;;;;;;12.93;6.68;;;;;;;;;;5035309;22;20508;-79
2022/10/21 09:48:17;;;;;;;9.65;7.05;;;;;;;;;;5054251;23;20151;-75
2022/10/21 09:50:53;;;;;;;11.02;6.88;;;;;;;;;;4988751;28;20353;-75
2022/10/21 09:53:42;;;;;;;9.63;6.72;;;;;;;;;;5005348;28;20054;-76
2022/10/21 09:56:32;;;;;;;6.70;6.00;;;;;;;;;;4990076;28;20046;-76
2022/10/21 09:59:05;;;;;;;7.53;6.10;;;;;;;;;;5024099;28;20046;-76
2022/10/21 10:01:35;;;;;;;6.22;5.65;;;;;;;;;;5019791;28;20420;-76
2022/10/21 10:04:09;;;;;;;7.25;6.43;;;;;;;;;;5004388;28;20054;-76
2022/10/21 10:06:38;;;;;;;8.27;6.40;;;;;;;;;;5012092;28;20050;-76
2022/10/21 10:09:06;;;;;;;13.00;7.00;;;;;;;;;;4989995;28;20050;-76
2022/10/21 10:11:33;;;;;;;6.65;5.93;;;;;;;;;;4991767;28;20802;-77
2022/10/21 10:14:21;;;;;;;11.90;7.18;;;;;;;;;;4987131;28;20276;-76
2022/10/21 10:16:48;;;;;;;10.00;6.68;;;;;;;;;;4987803;28;20067;-77
2022/10/21 10:19:15;;;;;;;9.55;6.95;;;;;;;;;;4992390;28;20609;-76
2022/10/21 10:21:43;;;;;;;9.90;6.50;;;;;;;;;;4996796;28;20588;-78
2022/10/21 10:24:18;;;;;;;9.45;6.63;;;;;;;;;;4989890;28;20480;-76
2022/10/21 10:26:46;;;;;;;10.07;7.05;;;;;;;;;;4986340;28;20509;-76
2022/10/21 10:29:27;;;;;;;10.05;7.03;;;;;;;;;;5009299;28;20462;-77
2022/10/21 10:31:58;;;;;;;8.47;7.60;;;;;;;;;;4990972;28;20050;-77
2022/10/21 10:34:34;;;;;;;7.57;6.43;;;;;;;;;;4986190;28;20847;-76
2022/10/21 10:37:06;;;;;;;9.05;7.03;;;;;;;;;;4987459;28;20121;-76
2022/10/21 10:39:35;;;;;;;8.18;6.90;;;;;;;;;;4991570;28;20038;-76
2022/10/21 10:42:03;;;;;;;8.15;7.25;;;;;;;;;;4988682;28;20125;-77
2022/10/21 10:44:36;;;;;;;12.52;7.00;;;;;;;;;;5005568;28;20042;-77
2022/10/21 10:47:05;;;;;;;9.65;6.97;;;;;;;;;;4990958;28;20065;-78
2022/10/21 10:49:34;;;;;;;8.52;7.45;;;;;;;;;;4992097;28;20039;-78
2022/10/21 10:52:04;;;;;;;8.43;7.63;;;;;;;;;;4990214;28;20054;-77
2022/10/21 10:54:31;;;;;;;7.95;7.15;;;;;;;;;;5003319;28;20050;-77
2022/10/21 10:57:10;;;;;;;10.25;6.88;;;;;;;;;;4991549;28;20129;-76
2022/10/21 10:59:46;;;;;;;9.48;8.48;;;;;;;;;;4985689;28;20513;-76
2022/10/21 11:02:13;;;;;;;9.73;8.27;;;;;;;;;;4983787;28;20129;-75
2022/10/21 11:04:59;;;;;;;9.55;7.95;;;;;;;;;;5008977;28;20084;-82
2022/10/21 11:07:41;;;;;;;9.95;7.40;;;;;;;;;;4988257;28;20042;-77
2022/10/21 11:10:27;;;;;;;9.13;7.03;;;;;;;;;;4990959;28;20049;-83
2022/10/21 11:12:54;;;;;;;12.20;7.13;;;;;;;;;;4987862;28;20153;-77
2022/10/21 11:15:30;;;;;;;11.32;6.90;;;;;;;;;;4990964;28;20053;-76
2022/10/21 11:18:12;;;;;;;10.80;7.07;;;;;;;;;;5012353;28;20054;-76
2022/10/21 11:20:57;;;;;;;7.97;6.95;;;;;;;;;;4989627;28;20053;-77
2022/10/21 11:23:51;;;;;;;10.65;7.88;;;;;;;;;;4990940;28;20575;-78
2022/10/21 11:26:36;;;;;;;10.57;8.48;;;;;;;;;;4989970;28;20050;-76
2022/10/21 11:29:04;;;;;;;9.67;7.30;;;;;;;;;;4989731;28;20046;-77
2022/10/21 11:31:50;;;;;;;8.50;6.95;;;;;;;;;;4991882;28;20636;-77
2022/10/21 11:34:53;;;;;;;10.48;7.45;;;;;;;;;;4991203;28;20525;-77
2022/10/21 11:37:23;;;;;;;8.93;7.18;;;;;;;;;;4991928;28;20549;-76
2022/10/21 11:40:09;;;;;;;10.15;7.30;;;;;;;;;;5005063;28;20371;-77
2022/10/21 11:42:41;;;;;;;7.93;7.07;;;;;;;;;;4990668;28;20112;-77
2022/10/21 11:45:11;;;;;;;11.00;7.10;;;;;;;;;;5014081;28;20043;-76
2022/10/21 11:47:38;;;;;;;11.65;7.32;;;;;;;;;;4988974;28;20042;-76
2022/10/21 11:50:24;;;;;;;7.88;7.18;;;;;;;;;;4978719;28;20042;-77
2022/10/21 11:52:51;;;;;;;15.20;6.80;;;;;;;;;;4980812;28;20096;-76
2022/10/21 11:55:39;;;;;;;9.20;7.50;;;;;;;;;;4992049;28;20043;-76
2022/10/21 11:58:25;;;;;;;7.63;6.93;;;;;;;;;;4975943;28;20381;-77
2022/10/21 12:01:18;;;;;;;8.82;7.93;;;;;;;;;;4998755;28;20072;-76
2022/10/21 12:03:54;;;;;;;8.57;7.53;;;;;;;;;;4989324;28;20514;-76
2022/10/21 12:06:33;;;;;;;10.75;7.75;;;;;;;;;;4987636;28;20085;-77
2022/10/21 12:09:03;;;;;;;8.73;7.00;;;;;;;;;;5008335;28;20038;-77
2022/10/21 12:11:35;;;;;;;9.50;7.72;;;;;;;;;;4991310;28;20051;-77
2022/10/21 12:14:18;;;;;;;15.93;9.82;;;;;;;;;;4992005;28;20124;-83
2022/10/21 12:16:46;;;;;;;10.15;8.18;;;;;;;;;;4992416;28;20042;-76
2022/10/21 12:19:14;;;;;;;11.60;6.30;;;;;;;;;;4989584;28;20149;-76
2022/10/21 12:21:43;;;;;;;8.43;6.93;;;;;;;;;;4987316;28;20054;-76
2022/10/21 12:24:24;;;;;;;13.20;7.75;;;;;;;;;;4986207;28;20043;-76
2022/10/21 12:27:15;;;;;;;8.50;7.60;;;;;;;;;;5015252;28;20042;-76
2022/10/21 12:30:01;;;;;;;9.95;7.25;;;;;;;;;;4998219;28;20038;-76
2022/10/21 12:32:32;;;;;;;11.95;7.57;;;;;;;;;;4987420;28;20050;-76
2022/10/21 12:35:00;;;;;;;14.95;7.70;;;;;;;;;;5002040;28;20101;-77
2022/10/21 12:37:46;;;;;;;9.88;7.25;;;;;;;;;;4991614;28;20101;-76
2022/10/21 12:40:16;;;;;;;9.82;7.80;;;;;;;;;;5006615;28;20105;-76
2022/10/21 12:42:47;;;;;;;9.80;7.45;;;;;;;;;;4988182;28;20042;-78
2022/10/21 12:45:30;;;;;;;8.77;7.35;;;;;;;;;;4983052;28;20046;-76
2022/10/21 12:47:57;;;;;;;7.57;6.72;;;;;;;;;;4982308;28;20054;-77
2022/10/21 12:50:28;;;;;;;12.25;7.75;;;;;;;;;;4996048;28;20142;-77
2022/10/21 12:53:06;;;;;;;10.07;6.18;;;;;;;;;;4984237;28;20073;-76
2022/10/21 12:55:39;;;;;;;10.30;7.70;;;;;;;;;;4983644;28;20042;-77
2022/10/21 12:58:22;;;;;;;9.38;7.70;;;;;;;;;;4963550;28;20946;-77
2022/10/21 13:00:53;;;;;;;8.82;7.85;;;;;;;;;;4991271;28;20054;-77
2022/10/21 13:03:23;;;;;;;10.13;8.52;;;;;;;;;;4983613;28;20042;-76
2022/10/21 13:06:01;;;;;;;9.98;8.00;;;;;;;;;;5002797;28;20049;-79
2022/10/21 13:08:37;;;;;;;9.88;8.07;;;;;;;;;;4986057;28;20517;-76
2022/10/21 13:11:04;;;;;;;9.48;7.93;;;;;;;;;;4984230;28;20077;-75
2022/10/21 13:13:39;;;;;;;14.45;8.20;;;;;;;;;;4983360;28;20077;-77
2022/10/21 13:16:15;;;;;;;9.00;7.68;;;;;;;;;;4984827;28;20556;-76
2022/10/21 13:18:59;;;;;;;14.02;9.07;;;;;;;;;;5011636;28;20076;-76
2022/10/21 13:21:43;;;;;;;10.60;8.38;;;;;;;;;;5001359;28;20151;-77
2022/10/21 13:24:46;;;;;;;9.52;8.52;;;;;;;;;;5015826;28;20042;-77
2022/10/21 13:27:24;;;;;;;10.95;9.20;;;;;;;;;;4940699;28;20145;-77
2022/10/21 13:29:52;;;;;;;11.30;9.07;;;;;;;;;;4977896;28;20405;-76
2022/10/21 13:32:24;;;;;;;9.80;8.20;;;;;;;;;;4988558;28;20042;-76
2022/10/21 13:34:51;;;;;;;;;;;;;;;;;;4989032;28;20052;-77
2022/10/21 13:37:39;;;;;;;9.50;8.52;;;;;;;;;;4987703;28;20393;-77
2022/10/21 13:40:13;;;;;;;11.45;9.85;;;;;;;;;;4980632;28;20042;-77
2022/10/21 13:42:42;;;;;;;11.35;8.23;;;;;;;;;;4995485;28;20066;-77
2022/10/21 13:45:25;;;;;;;13.25;8.63;;;;;;;;;;4987235;28;20374;-77
2022/10/21 13:48:00;;;;;;;14.82;8.77;;;;;;;;;;4984073;28;20100;-77
2022/10/21 13:50:29;;;;;;;11.32;8.18;;;;;;;;;;4986836;28;20278;-77
2022/10/21 13:52:57;;;;;;;9.50;8.35;;;;;;;;;;4981299;28;20034;-76
2022/10/21 13:55:25;;;;;;;9.88;7.47;;;;;;;;;;4982939;28;20049;-77
2022/10/21 13:57:54;;;;;;;9.68;8.07;;;;;;;;;;5015128;28;20065;-77
2022/10/21 14:00:24;;;;;;;11.00;8.32;;;;;;;;;;4985789;28;20094;-77
2022/10/21 14:02:53;;;;;;;13.15;9.45;;;;;;;;;;4982384;28;20121;-77
2022/10/21 14:05:38;;;;;;;9.55;8.52;;;;;;;;;;4995309;28;20042;-77
2022/10/21 14:08:13;;;;;;;9.48;8.23;;;;;;;;;;4995906;28;20694;-77
2022/10/21 14:10:43;;;;;;;10.13;9.07;;;;;;;;;;4998078;28;20054;-77
2022/10/21 14:13:11;;;;;;;11.85;9.90;;;;;;;;;;4982683;28;20176;-78
2022/10/21 14:15:41;;;;;;;14.35;8.80;;;;;;;;;;4988296;28;20049;-77
2022/10/21 14:18:08;;;;;;;10.10;8.07;;;;;;;;;;4986343;28;20517;-77
2022/10/21 14:20:36;;;;;;;8.60;7.70;;;;;;;;;;4982388;28;20049;-76
2022/10/21 14:23:06;;;;;;;9.60;8.60;;;;;;;;;;4995118;28;20524;-76
2022/10/21 14:25:34;;;;;;;10.48;8.85;;;;;;;;;;4983609;28;20213;-75
2022/10/21 14:28:03;;;;;;;11.65;8.85;;;;;;;;;;4993299;28;20056;-76
2022/10/21 14:30:31;;;;;;;10.20;8.73;;;;;;;;;;4998212;28;20049;-77
2022/10/21 14:33:00;;;;;;;11.18;8.40;;;;;;;;;;4994784;28;20117;-76
2022/10/21 14:35:28;;;;;;;9.90;8.05;;;;;;;;;;5010948;28;20074;-76
2022/10/21 14:37:57;;;;;;;12.48;9.60;;;;;;;;;;4992157;28;20042;-76
2022/10/21 14:40:36;;;;;;;13.30;10.57;;;;;;;;;;4993861;28;20129;-76
2022/10/21 14:43:16;;;;;;;10.63;8.68;;;;;;;;;;5005723;28;20575;-76
2022/10/21 14:45:45;;;;;;;10.88;8.70;;;;;;;;;;5008987;28;20050;-76
2022/10/21 14:48:29;;;;;;;13.73;8.38;;;;;;;;;;4990638;28;20042;-77
2022/10/21 14:50:59;;;;;;;10.77;7.65;;;;;;;;;;4994257;28;20045;-76
2022/10/21 14:53:29;;;;;;;13.60;8.70;;;;;;;;;;4978844;28;20409;-76
2022/10/21 14:55:57;;;;;;;11.93;8.45;;;;;;;;;;4980225;28;20136;-75
2022/10/21 14:58:28;;;;;;;8.68;7.78;;;;;;;;;;4991731;28;20505;-75
2022/10/21 15:01:05;;;;;;;9.15;8.13;;;;;;;;;;5000409;28;20050;-77